Terminal Aerodrome Forecast
Issued by NWS

Home | Current Version | Previous Version | Text Only | Print | Product List | Glossary On
Versions: 1 2 3 4 5 6 7 8 9 10 11 12 13 14 15
000
FTAK31 PANC 261732
TAFAAQ
TAF
PAAQ 261732Z 2618/2718 35006KT P6SM SCT050 OVC060
     FM262200 14012G22KT P6SM VCSH SCT040 BKN060
     FM270600 12010KT P6SM FEW050 SCT080 BKN150=

USA.gov is the U.S. government's official web portal to all federal, state and local government web resources and services.